Time;durP1;ratioP1;P1;durP2;ratioP2;P2;SDS_P1;SDS_P2;PMS_P1;PMS_P2;Temp;Humidity;BMP_temperature;BMP_pressure;BME280_temperature;BME280_humidity;BME280_pressure;Samples;Min_cycle;Max_cycle;Signal;HPM_P1;HPM_P2
2022/10/23 00:01:21;;;;;;;;;5.00;4.00;;;;;19.33;62.53;100341.25;4957696;28;45453;-78
2022/10/23 00:03:54;;;;;;;;;3.50;3.50;;;;;19.36;62.44;100334.78;4957552;28;45706;-81
2022/10/23 00:06:21;;;;;;;;;4.50;4.00;;;;;19.33;62.45;100325.31;4957272;28;46784;-80
2022/10/23 00:08:47;;;;;;;;;5.25;5.00;;;;;19.38;62.69;100322.94;4957171;28;46142;-79
2022/10/23 00:11:16;;;;;;;;;5.75;4.25;;;;;19.38;62.34;100317.63;4957136;28;45621;-76
2022/10/23 00:13:43;;;;;;;;;4.00;4.00;;;;;19.35;62.45;100311.84;4957396;28;45634;-78
2022/10/23 00:16:09;;;;;;;;;4.00;4.00;;;;;19.39;62.64;100315.81;4955931;28;46642;-78
2022/10/23 00:18:35;;;;;;;;;5.00;5.00;;;;;19.40;62.55;100309.50;4956921;28;47204;-78
2022/10/23 00:21:01;;;;;;;;;4.00;4.00;;;;;19.32;62.50;100298.94;4957418;28;45669;-77
2022/10/23 00:23:26;;;;;;;;;7.00;6.00;;;;;19.34;62.59;100302.22;4957086;28;45875;-75
2022/10/23 00:25:53;;;;;;;;;5.50;5.25;;;;;19.38;62.42;100311.53;4956967;28;47275;-76
2022/10/23 00:28:19;;;;;;;;;6.25;5.00;;;;;19.33;62.51;100292.59;4957150;28;45968;-78
2022/10/23 00:30:45;;;;;;;;;5.00;4.00;;;;;19.34;62.95;100302.22;4955163;28;45691;-80
2022/10/23 00:33:10;;;;;;;;;5.75;4.50;;;;;19.32;62.86;100299.75;4957519;28;45449;-77
2022/10/23 00:35:40;;;;;;;;;4.25;4.00;;;;;19.31;62.73;100295.44;4957051;28;45521;-76
2022/10/23 00:38:05;;;;;;;;;6.25;5.75;;;;;19.31;62.90;100297.28;4957009;28;45916;-79
2022/10/23 00:40:31;;;;;;;;;4.75;4.75;;;;;19.29;62.71;100294.78;4957279;28;45653;-78
2022/10/23 00:42:56;;;;;;;;;4.25;4.25;;;;;19.25;62.75;100289.00;4957215;28;45634;-75
2022/10/23 00:45:30;;;;;;;;;5.75;4.00;;;;;19.18;62.89;100277.38;4956670;28;46310;-77
2022/10/23 00:47:56;;;;;;;;;6.00;4.75;;;;;19.25;62.63;100290.81;4939867;28;46898;-75
2022/10/23 00:50:24;;;;;;;;;8.25;5.00;;;;;19.23;62.79;100284.84;4956500;28;45589;-78
2022/10/23 00:52:53;;;;;;;;;5.25;5.00;;;;;19.20;62.64;100280.72;4957167;28;45531;-79
2022/10/23 00:55:20;;;;;;;;;4.25;4.00;;;;;19.17;62.63;100266.94;4956643;28;47886;-77
2022/10/23 00:57:52;;;;;;;;;6.00;4.00;;;;;19.15;63.03;100263.63;4971457;28;47088;-77
2022/10/23 01:00:24;;;;;;;;;5.00;3.50;;;;;19.18;62.96;100261.44;4971566;28;45637;-76
2022/10/23 01:02:50;;;;;;;;;4.00;3.75;;;;;19.16;63.00;100254.69;4956625;28;45772;-79
2022/10/23 01:05:16;;;;;;;;;4.75;4.75;;;;;19.14;63.13;100235.41;4956686;28;45411;-78
2022/10/23 01:07:47;;;;;;;;;5.00;4.00;;;;;19.12;62.87;100237.41;4956380;28;46437;-77
2022/10/23 01:10:29;;;;;;;;;4.00;4.00;;;;;19.10;63.10;100228.81;4956573;28;45696;-79
2022/10/23 01:13:09;;;;;;;;;4.25;4.00;;;;;19.07;62.71;100235.28;4956987;28;45823;-77
2022/10/23 01:15:40;;;;;;;;;6.50;4.00;;;;;19.08;63.17;100236.94;4956304;28;46550;-82
2022/10/23 01:18:19;;;;;;;;;4.25;3.00;;;;;19.03;62.90;100214.56;4955955;28;46327;-77
2022/10/23 01:20:59;;;;;;;;;4.25;4.00;;;;;19.07;62.89;100231.78;4956356;28;45780;-78
2022/10/23 01:23:43;;;;;;;;;3.50;3.00;;;;;19.05;62.89;100215.22;4956429;28;45832;-77
2022/10/23 01:26:48;;;;;;;;;3.00;3.00;;;;;19.04;62.94;100214.41;4938855;28;46581;-76
2022/10/23 01:29:20;;;;;;;;;3.50;3.25;;;;;18.98;63.33;100195.66;4956408;28;46141;-75
2022/10/23 01:31:57;;;;;;;;;4.75;4.00;;;;;19.00;63.31;100194.47;4956042;28;45726;-77
2022/10/23 01:34:30;;;;;;;;;3.00;3.00;;;;;18.93;62.97;100185.56;4956197;28;45930;-77
2022/10/23 01:36:58;;;;;;;;;3.75;3.00;;;;;19.00;62.97;100193.69;4956156;28;46384;-75
2022/10/23 01:39:34;;;;;;;;;2.00;2.00;;;;;18.96;63.17;100190.50;4955784;28;46369;-78
2022/10/23 01:42:09;;;;;;;;;4.00;3.00;;;;;18.96;63.33;100198.47;4954393;28;45764;-75
2022/10/23 01:44:43;;;;;;;;;3.00;2.75;;;;;18.95;62.97;100198.69;4956061;28;46025;-74
2022/10/23 01:47:11;;;;;;;;;3.25;2.00;;;;;18.92;63.25;100199.00;4956002;28;46319;-80
2022/10/23 01:49:40;;;;;;;;;3.00;3.00;;;;;18.91;63.47;100197.34;4954519;28;47457;-81
2022/10/23 01:52:10;;;;;;;;;3.00;3.00;;;;;18.88;62.78;100198.53;4956534;28;45610;-76
2022/10/23 01:54:39;;;;;;;;;3.75;3.00;;;;;18.88;63.44;100201.19;4971131;28;45632;-76
2022/10/23 01:57:09;;;;;;;;;4.00;3.00;;;;;18.90;63.36;100188.56;4955479;28;47496;-77
2022/10/23 01:59:38;;;;;;;;;4.00;2.00;;;;;18.82;62.95;100170.84;4955617;28;46073;-79
2022/10/23 02:02:06;;;;;;;;;3.00;2.25;;;;;18.91;63.13;100178.75;4955874;28;45756;-77
2022/10/23 02:04:55;;;;;;;;;2.00;2.00;;;;;18.91;63.37;100178.75;4954552;28;45952;-80
2022/10/23 02:07:21;;;;;;;;;2.25;2.25;;;;;18.92;63.00;100172.47;4954730;28;46468;-75
2022/10/23 02:09:47;;;;;;;;;2.75;2.00;;;;;18.90;63.20;100162.00;4954973;28;46401;-77
2022/10/23 02:12:22;;;;;;;;;1.75;1.50;;;;;18.88;63.32;100155.22;4955444;28;45582;-79
2022/10/23 02:15:05;;;;;;;;;2.00;2.00;;;;;18.89;63.65;100162.19;4954950;28;45559;-77
2022/10/23 02:18:01;;;;;;;;;3.00;3.00;;;;;18.83;63.29;100153.94;4953375;28;47523;-77
2022/10/23 02:20:28;;;;;;;;;3.00;2.50;;;;;18.84;63.14;100160.03;4939683;28;46303;-76
2022/10/23 02:23:12;;;;;;;;;2.00;2.00;;;;;18.85;63.51;100151.91;4955154;28;45711;-76
2022/10/23 02:25:52;;;;;;;;;3.50;3.00;;;;;18.81;63.29;100141.81;4955691;28;45551;-75
2022/10/23 02:28:24;;;;;;;;;3.00;2.75;;;;;18.85;63.06;100143.94;4955113;28;47474;-79
2022/10/23 02:34:12;;;;;;;;;2.00;2.00;;;;;18.87;63.58;100122.53;4955230;28;45967;-79
2022/10/23 02:36:38;;;;;;;;;4.50;3.00;;;;;18.73;63.65;100107.38;4937708;28;45964;-75
2022/10/23 02:39:03;;;;;;;;;2.75;2.00;;;;;18.85;63.44;100124.53;4954831;28;46934;-74
2022/10/23 02:41:39;;;;;;;;;3.00;2.00;;;;;18.85;63.77;100114.75;4955043;28;47227;-75
2022/10/23 02:44:19;;;;;;;;;2.25;2.25;;;;;18.86;63.77;100105.78;4955237;28;45671;-75
2022/10/23 02:50:15;;;;;;;;;3.50;3.00;;;;;18.87;63.85;100106.63;4954709;28;45466;-76
2022/10/23 02:52:57;;;;;;;;;1.00;1.00;;;;;18.85;63.62;100109.44;4954550;28;46610;-73
2022/10/23 02:55:29;;;;;;;;;3.75;3.00;;;;;18.85;64.08;100098.00;4954646;28;45541;-75
2022/10/23 02:58:25;;;;;;;;;4.00;2.25;;;;;18.83;63.50;100098.19;4953697;28;45833;-75
2022/10/23 03:01:02;;;;;;;;;2.25;2.25;;;;;18.79;63.83;100088.88;4954555;28;47804;-77
2022/10/23 03:03:37;;;;;;;;;3.50;2.75;;;;;18.82;64.06;100085.06;4954511;28;47421;-75
2022/10/23 03:06:03;;;;;;;;;3.25;3.25;;;;;18.77;63.92;100077.66;4954901;28;45599;-75
2022/10/23 03:08:28;;;;;;;;;4.00;4.00;;;;;18.78;64.40;100079.31;4954766;28;45729;-74
2022/10/23 03:10:53;;;;;;;;;3.00;3.00;;;;;18.71;63.84;100064.25;4954855;28;46340;-75
2022/10/23 03:13:20;;;;;;;;;3.00;3.00;;;;;18.77;64.41;100069.69;4954625;28;46406;-79
2022/10/23 03:15:45;;;;;;;;;3.00;2.00;;;;;18.77;64.39;100071.50;4954733;28;45489;-75
2022/10/23 03:21:46;;;;;;;;;3.00;3.00;;;;;18.76;64.20;100061.88;4952901;28;45705;-76
2022/10/23 03:24:12;;;;;;;;;4.50;3.00;;;;;18.75;64.74;100061.06;4954565;28;46040;-76
2022/10/23 03:26:39;;;;;;;;;3.00;2.00;;;;;18.72;64.22;100057.94;4953841;28;45615;-77
2022/10/23 03:29:04;;;;;;;;;4.25;3.25;;;;;18.71;64.21;100043.00;4954561;28;45669;-75
2022/10/23 03:31:30;;;;;;;;;2.00;2.00;;;;;18.71;64.26;100032.38;4954029;28;46563;-75
2022/10/23 03:33:55;;;;;;;;;5.00;2.75;;;;;18.70;64.93;100036.88;4954521;28;45681;-75
2022/10/23 03:36:21;;;;;;;;;4.00;3.00;;;;;18.64;64.84;100034.91;4954250;28;45590;-75
2022/10/23 03:38:46;;;;;;;;;2.25;2.25;;;;;18.67;64.73;100047.84;4954938;28;45589;-75
2022/10/23 03:41:11;;;;;;;;;3.00;3.00;;;;;18.61;65.11;100039.75;4954438;28;45694;-75
2022/10/23 03:43:37;;;;;;;;;5.75;3.75;;;;;18.66;64.70;100046.19;4954438;28;46180;-75
2022/10/23 03:46:07;;;;;;;;;3.00;3.00;;;;;18.67;64.78;100050.50;4954330;28;45578;-75
2022/10/23 03:51:54;;;;;;;;;1.00;1.00;;;;;18.66;64.56;100038.22;4953996;28;45646;-75
2022/10/23 03:54:25;;;;;;;;;3.00;2.50;;;;;18.67;64.63;100042.53;4954085;28;46124;-75
2022/10/23 03:56:52;;;;;;;;;3.00;3.00;;;;;18.65;64.58;100039.22;4953926;28;45750;-77
2022/10/23 03:59:18;;;;;;;;;3.00;3.00;;;;;18.67;64.65;100042.53;4954400;28;45665;-77
2022/10/23 04:01:44;;;;;;;;;4.50;4.00;;;;;18.68;64.80;100051.31;4953712;28;47405;-77
2022/10/23 04:04:11;;;;;;;;;3.00;3.00;;;;;18.67;64.97;100054.97;4954187;28;45858;-75
2022/10/23 04:06:36;;;;;;;;;4.00;3.00;;;;;18.69;64.88;100047.66;4956356;28;45714;-77
2022/10/23 04:09:02;;;;;;;;;3.00;3.00;;;;;18.66;64.88;100035.56;4957440;28;45851;-76
2022/10/23 04:11:28;;;;;;;;;3.00;3.00;;;;;18.69;64.71;100052.97;4957238;28;46322;-75
2022/10/23 04:13:53;;;;;;;;;4.00;3.00;;;;;18.68;65.32;100053.94;4957202;28;47272;-75
2022/10/23 04:16:18;;;;;;;;;4.25;3.00;;;;;18.68;64.72;100051.31;4957184;28;45595;-75
2022/10/23 04:22:06;;;;;;;;;4.25;2.00;;;;;18.64;65.17;100042.03;4957195;28;45600;-79
2022/10/23 04:24:31;;;;;;;;;4.50;3.00;;;;;18.63;65.03;100045.69;4958096;28;46291;-80
2022/10/23 04:26:56;;;;;;;;;4.50;3.50;;;;;18.64;65.17;100047.34;4957536;28;45610;-81
2022/10/23 04:29:23;;;;;;;;;2.75;2.50;;;;;18.64;65.39;100053.47;4957398;28;45491;-74
2022/10/23 04:31:50;;;;;;;;;4.25;3.00;;;;;18.63;65.51;100049.19;4956858;28;46935;-76
2022/10/23 04:34:16;;;;;;;;;4.00;4.00;;;;;18.64;65.26;100060.63;4956704;28;47143;-75
2022/10/23 04:36:42;;;;;;;;;4.75;4.00;;;;;18.66;64.95;100055.97;4957211;28;45939;-77
2022/10/23 04:39:08;;;;;;;;;5.75;3.00;;;;;18.66;65.23;100038.22;4956893;28;45531;-75
2022/10/23 04:41:33;;;;;;;;;3.75;3.00;;;;;18.67;64.99;100025.78;4956992;28;45513;-75
2022/10/23 04:43:58;;;;;;;;;1.00;1.00;;;;;18.66;64.96;100014.34;4956903;28;45602;-74
2022/10/23 04:46:24;;;;;;;;;4.75;4.00;;;;;18.67;65.08;100018.66;4956858;28;45624;-75
2022/10/23 04:52:12;;;;;;;;;5.00;3.75;;;;;18.64;65.49;100064.09;4956532;28;46183;-79
2022/10/23 04:54:38;;;;;;;;;4.50;3.50;;;;;18.68;65.20;100081.31;4956639;28;47321;-74
2022/10/23 04:57:04;;;;;;;;;4.00;4.00;;;;;18.66;65.55;100078.03;4956418;28;45741;-73
2022/10/23 04:59:29;;;;;;;;;5.00;4.00;;;;;18.66;65.34;100064.75;4955892;28;45648;-75
2022/10/23 05:01:54;;;;;;;;;3.75;3.25;;;;;18.64;65.52;100057.97;4956503;28;46557;-76
2022/10/23 05:07:41;;;;;;;;;6.00;4.50;;;;;18.67;65.30;100031.94;4956376;28;45716;-78
2022/10/23 05:10:07;;;;;;;;;4.00;3.75;;;;;18.70;65.26;100033.38;4956676;28;45785;-74
2022/10/23 05:12:33;;;;;;;;;4.25;3.75;;;;;18.70;65.72;100026.25;4956460;28;46666;-73
2022/10/23 05:14:58;;;;;;;;;7.00;6.00;;;;;18.71;66.15;100016.47;4956500;28;45614;-75
2022/10/23 05:17:33;;;;;;;;;5.75;3.50;;;;;18.68;65.94;100020.28;4956115;28;45447;-74
2022/10/23 05:20:04;;;;;;;;;5.00;4.75;;;;;18.67;65.80;100016.00;4956304;28;45904;-75
2022/10/23 05:22:33;;;;;;;;;3.50;3.00;;;;;18.72;66.00;100024.25;4970936;28;48788;-73
2022/10/23 05:25:00;;;;;;;;;4.75;4.75;;;;;18.71;65.64;100019.13;4956005;28;46392;-76
2022/10/23 05:27:26;;;;;;;;;5.50;5.00;;;;;18.68;66.35;99995.56;4955915;28;45692;-74
2022/10/23 05:29:51;;;;;;;;;5.00;4.00;;;;;18.70;65.99;99983.78;4956070;28;45846;-75
2022/10/23 05:32:17;;;;;;;;;3.50;3.50;;;;;18.65;65.88;99969.41;4955875;28;46403;-80
2022/10/23 05:38:06;;;;;;;;;5.00;4.00;;;;;18.68;66.32;99974.34;4956143;28;45570;-77
2022/10/23 05:40:32;;;;;;;;;5.50;5.00;;;;;18.69;65.71;99976.81;4956265;28;45825;-77
2022/10/23 05:42:57;;;;;;;;;5.00;4.00;;;;;18.69;66.32;99973.34;4956190;28;46445;-79
2022/10/23 05:45:22;;;;;;;;;7.00;4.00;;;;;18.69;66.13;99965.38;4955893;28;46255;-80
2022/10/23 05:47:48;;;;;;;;;5.50;5.00;;;;;18.66;66.17;99958.63;4955998;28;45645;-81
2022/10/23 05:50:15;;;;;;;;;4.25;3.75;;;;;18.65;66.34;99956.13;4956025;28;45718;-79
2022/10/23 05:52:40;;;;;;;;;5.25;4.75;;;;;18.65;66.08;99966.75;4970888;28;48414;-80
2022/10/23 05:55:06;;;;;;;;;5.00;4.00;;;;;18.61;66.15;99960.16;4955720;28;45650;-78
2022/10/23 05:57:32;;;;;;;;;6.00;4.50;;;;;18.63;66.28;99966.91;4955327;28;45594;-78
2022/10/23 05:59:58;;;;;;;;;6.00;5.25;;;;;18.58;66.28;99955.19;4955747;28;45538;-78
2022/10/23 06:02:23;;;;;;;;;5.50;4.50;;;;;18.65;66.30;99956.13;4955555;28;45557;-80
2022/10/23 06:08:10;;;;;;;;;6.00;5.00;;;;;18.62;66.95;99975.91;4955631;28;45682;-78
2022/10/23 06:10:35;;;;;;;;;5.00;5.00;;;;;18.61;66.40;99960.16;4956104;28;45537;-79
2022/10/23 06:13:00;;;;;;;;;4.00;4.00;;;;;18.59;66.98;99964.78;4955017;28;46311;-80
2022/10/23 06:15:26;;;;;;;;;5.00;4.25;;;;;18.59;66.46;99964.78;4955689;28;45990;-80
2022/10/23 06:17:51;;;;;;;;;7.00;5.00;;;;;18.58;66.75;99963.13;4955334;28;45687;-74
2022/10/23 06:23:40;;;;;;;;;7.75;6.00;;;;;18.55;66.63;99974.13;4953352;28;45700;-76
2022/10/23 06:26:08;;;;;;;;;9.50;6.00;;;;;18.54;66.67;99959.16;4955041;28;47166;-76
2022/10/23 06:28:33;;;;;;;;;6.50;6.00;;;;;18.53;67.26;99949.53;4954806;28;45753;-77
2022/10/23 06:31:02;;;;;;;;;7.25;6.00;;;;;18.55;67.37;99944.94;4921835;28;45927;-77
2022/10/23 06:33:27;;;;;;;;;5.50;5.00;;;;;18.53;67.25;99955.69;4955105;28;45629;-77
2022/10/23 06:35:55;;;;;;;;;5.25;5.00;;;;;18.54;66.74;99953.84;4954844;28;45562;-77
2022/10/23 06:38:20;;;;;;;;;6.00;5.75;;;;;18.49;67.42;99935.81;4955197;28;45760;-77
2022/10/23 06:40:56;;;;;;;;;4.00;3.00;;;;;18.54;67.26;99935.28;4953738;28;45611;-77
2022/10/23 06:43:22;;;;;;;;;6.25;5.50;;;;;18.55;67.43;99936.97;4954619;28;46728;-76
2022/10/23 06:45:47;;;;;;;;;8.00;7.00;;;;;18.46;67.67;99923.72;4954845;28;47001;-77
2022/10/23 06:48:14;;;;;;;;;6.25;5.50;;;;;18.50;67.14;99937.47;4953712;28;45636;-79
2022/10/23 06:54:00;;;;;;;;;7.75;6.25;;;;;18.41;66.92;99915.47;4955675;28;45597;-79
2022/10/23 06:56:28;;;;;;;;;6.00;5.50;;;;;18.54;67.41;99935.28;4954584;28;46021;-75
2022/10/23 06:58:53;;;;;;;;;9.25;7.50;;;;;18.50;67.27;99920.72;4938289;28;45516;-80
2022/10/23 07:01:18;;;;;;;;;6.00;5.75;;;;;18.57;67.40;99930.47;4955447;28;45889;-72
2022/10/23 07:03:44;;;;;;;;;6.00;5.75;;;;;18.58;67.18;99920.69;4954443;28;47742;-73
2022/10/23 07:06:09;;;;;;;;;7.75;6.25;;;;;18.54;67.10;99912.25;4954332;28;46249;-74
2022/10/23 07:08:36;;;;;;;;;7.00;6.50;;;;;18.58;66.99;99926.81;4954997;28;45590;-74
2022/10/23 07:11:07;;;;;;;;;7.00;5.25;;;;;18.50;67.07;99915.41;4955290;28;45904;-75
2022/10/23 07:13:34;;;;;;;;;6.75;6.00;;;;;18.55;67.40;99915.75;4953209;28;47266;-77
2022/10/23 07:16:11;;;;;;;;;6.50;6.00;;;;;18.57;67.18;99917.19;4954307;28;46047;-74
2022/10/23 07:18:37;;;;;;;;;11.50;10.00;;;;;18.59;67.11;99917.88;4953238;28;45810;-77
2022/10/23 07:24:26;;;;;;;;;35.00;29.75;;;;;18.59;66.90;99917.03;4953017;28;45645;-80
2022/10/23 07:26:53;;;;;;;;;10.25;9.25;;;;;18.61;67.35;99917.69;4956130;28;45913;-85
2022/10/23 07:29:18;;;;;;;;;8.50;6.00;;;;;18.61;67.66;99929.13;4936884;28;45658;-80
2022/10/23 07:31:44;;;;;;;;;6.75;5.25;;;;;18.64;67.28;99925.28;4956753;28;45583;-82
2022/10/23 07:34:10;;;;;;;;;7.00;7.00;;;;;18.59;67.09;99907.25;4953783;28;48170;-79
2022/10/23 07:36:35;;;;;;;;;9.75;9.00;;;;;18.66;67.01;99923.28;4954709;28;46312;-82
2022/10/23 07:39:00;;;;;;;;;6.25;5.25;;;;;18.58;67.40;99900.28;4955323;28;45624;-82
2022/10/23 07:41:26;;;;;;;;;8.75;6.75;;;;;18.62;67.43;99898.94;4958603;28;45766;-83
2022/10/23 07:43:51;;;;;;;;;6.50;6.50;;;;;18.67;67.35;99909.84;4958360;28;45613;-82
2022/10/23 07:46:16;;;;;;;;;6.25;5.75;;;;;18.56;67.36;99886.41;4958260;28;46277;-84
2022/10/23 07:48:42;;;;;;;;;8.75;7.25;;;;;18.66;67.56;99900.25;4958003;28;45793;-81
2022/10/23 07:54:29;;;;;;;;;9.00;6.00;;;;;18.70;67.49;99906.84;4957478;28;45594;-78
2022/10/23 07:56:55;;;;;;;;;6.25;6.00;;;;;18.72;67.40;99896.03;4940156;28;46112;-80
2022/10/23 07:59:20;;;;;;;;;6.50;5.50;;;;;18.70;67.26;99890.06;4957557;28;45604;-84
2022/10/23 08:01:47;;;;;;;;;7.00;6.25;;;;;18.72;67.39;99896.03;4958164;28;45538;-80
2022/10/23 08:04:12;;;;;;;;;5.25;5.25;;;;;18.73;67.25;99893.19;4957102;28;46615;-82
2022/10/23 08:09:59;;;;;;;;;6.75;6.00;;;;;18.80;66.77;99899.44;4957267;28;45808;-81
2022/10/23 08:12:24;;;;;;;;;6.75;6.25;;;;;18.83;66.68;99898.28;4940229;28;45603;-83
2022/10/23 08:14:50;;;;;;;;;6.50;5.75;;;;;18.82;66.79;99889.47;4957329;28;46351;-83
2022/10/23 08:17:15;;;;;;;;;6.75;6.75;;;;;18.88;67.00;99895.91;4939725;28;46138;-86
2022/10/23 08:19:45;;;;;;;;;6.75;6.50;;;;;18.87;66.99;99883.63;4956869;28;45586;-81
2022/10/23 08:25:32;;;;;;;;;4.75;3.00;;;;;18.95;66.63;99891.50;4954725;28;46379;-80
2022/10/23 08:27:58;;;;;;;;;8.75;7.00;;;;;19.02;66.38;99879.16;4955903;28;46993;-79
2022/10/23 08:30:23;;;;;;;;;6.25;5.50;;;;;19.05;66.72;99865.53;4956370;28;45532;-79
2022/10/23 08:32:48;;;;;;;;;6.00;5.50;;;;;19.09;66.54;99869.47;4956519;28;45779;-77
2022/10/23 08:35:14;;;;;;;;;6.75;5.50;;;;;19.11;66.29;99867.44;4956978;28;45542;-75
2022/10/23 08:37:40;;;;;;;;;6.00;5.25;;;;;19.15;66.51;99874.06;4956492;28;46339;-77
2022/10/23 08:40:05;;;;;;;;;5.00;5.00;;;;;19.19;66.41;99877.16;4939348;28;45852;-76
2022/10/23 08:42:37;;;;;;;;;6.50;5.25;;;;;19.21;65.93;99889.28;4956794;28;45889;-79
2022/10/23 08:45:23;;;;;;;;;6.50;6.50;;;;;19.24;65.85;99891.56;4957176;28;45494;-78
2022/10/23 08:47:56;;;;;;;;;6.75;5.75;;;;;19.26;65.81;99883.41;4956989;28;46296;-78
2022/10/23 08:50:59;;;;;;;;;6.50;6.00;;;;;19.29;65.78;99886.50;4955261;28;45713;-77
2022/10/23 08:53:42;;;;;;;;;8.50;7.00;;;;;19.31;66.08;99886.34;4956931;28;45887;-78
2022/10/23 08:56:23;;;;;;;;;8.50;7.00;;;;;19.36;65.74;99885.78;4955536;28;47492;-76
2022/10/23 08:59:10;;;;;;;;;6.25;5.00;;;;;19.41;66.00;99880.75;4956502;28;47121;-77
2022/10/23 09:01:54;;;;;;;;;7.00;6.50;;;;;19.46;65.58;99875.72;4956893;28;45619;-77
2022/10/23 09:04:21;;;;;;;;;6.00;6.00;;;;;19.42;65.39;99854.00;4956576;28;45675;-76
2022/10/23 09:07:00;;;;;;;;;6.25;6.25;;;;;19.53;65.26;99869.50;4955953;28;46775;-76
2022/10/23 09:09:31;;;;;;;;;6.00;5.00;;;;;19.56;65.35;99876.28;4956216;28;45639;-77
2022/10/23 09:12:21;;;;;;;;;6.00;5.50;;;;;19.60;65.03;99880.19;4956381;28;45460;-77
2022/10/23 09:15:01;;;;;;;;;5.50;4.00;;;;;19.64;64.95;99876.19;4956507;28;45915;-75
2022/10/23 09:17:29;;;;;;;;;9.50;6.25;;;;;19.67;64.75;99867.84;4955615;28;46743;-78
2022/10/23 09:20:04;;;;;;;;;5.75;5.25;;;;;19.69;64.88;99871.97;4956650;28;45590;-77
2022/10/23 09:22:56;;;;;;;;;7.00;6.00;;;;;19.58;64.46;99831.75;4955659;28;45665;-78
2022/10/23 09:25:37;;;;;;;;;5.25;5.00;;;;;19.59;64.67;99839.53;4956239;28;45876;-79
2022/10/23 09:28:32;;;;;;;;;7.50;5.25;;;;;19.82;64.35;99865.13;4955467;28;46829;-81
2022/10/23 09:31:10;;;;;;;;;6.50;6.00;;;;;19.84;64.53;99865.78;4955063;28;47021;-83
2022/10/23 09:33:36;;;;;;;;;5.50;5.00;;;;;19.85;64.11;99873.59;4956326;28;45730;-79
2022/10/23 09:39:28;;;;;;;;;5.25;5.25;;;;;19.91;64.24;99845.44;4955746;28;45577;-80
2022/10/23 09:41:54;;;;;;;;;6.25;4.50;;;;;19.90;64.04;99854.41;4970525;28;47478;-79
2022/10/23 09:44:29;;;;;;;;;8.00;7.75;;;;;19.95;63.71;99858.16;4955809;28;45792;-79
2022/10/23 09:47:12;;;;;;;;;4.00;4.00;;;;;20.00;63.67;99857.59;4956009;28;45604;-79
2022/10/23 09:49:45;;;;;;;;;5.50;4.00;;;;;20.02;63.49;99855.56;4955979;28;45489;-78
2022/10/23 09:55:31;;;;;;;;;5.25;5.25;;;;;20.09;63.35;99854.59;4955849;28;45546;-76
2022/10/23 09:57:57;;;;;;;;;4.50;4.50;;;;;20.17;63.08;99859.00;4955284;28;45917;-78
2022/10/23 10:00:25;;;;;;;;;5.00;5.00;;;;;20.19;63.34;99856.16;4954432;28;45604;-77
2022/10/23 10:03:02;;;;;;;;;5.00;4.50;;;;;20.22;62.83;99851.28;4955286;28;46067;-81
2022/10/23 10:05:27;;;;;;;;;5.75;5.00;;;;;20.28;62.97;99844.38;4958887;28;45778;-91
2022/10/23 10:11:21;;;;;;;;;7.75;5.25;;;;;20.33;62.49;99834.00;4955362;28;45659;-80
2022/10/23 10:13:58;;;;;;;;;4.25;3.75;;;;;20.37;62.53;99844.06;4955268;28;46364;-79
2022/10/23 10:16:36;;;;;;;;;11.00;8.00;;;;;20.40;62.56;99834.91;4956815;28;45786;-86
2022/10/23 10:19:11;;;;;;;;;5.50;4.50;;;;;20.42;62.19;99839.00;4959353;28;45523;-78
2022/10/23 10:29:29;;;;;;;;;3.00;3.00;;;;;20.60;61.90;99829.72;4936278;28;45547;-77
2022/10/23 10:32:19;;;;;;;;;4.75;3.25;;;;;20.65;61.63;99836.13;4914688;28;45916;-77
2022/10/23 10:35:07;;;;;;;;;7.00;4.00;;;;;20.71;61.41;99843.34;4914745;28;45898;-77
2022/10/23 10:37:58;;;;;;;;;4.75;4.75;;;;;20.73;60.95;99825.31;4914426;28;45623;-75
2022/10/23 10:40:31;;;;;;;;;5.50;4.50;;;;;20.79;61.09;99832.53;4914261;28;45632;-78
2022/10/23 10:43:02;;;;;;;;;9.25;8.75;;;;;20.85;61.17;99829.09;4914435;28;45641;-78
2022/10/23 10:45:40;;;;;;;;;11.75;8.00;;;;;20.86;61.40;99825.44;4914235;28;45871;-78
2022/10/23 10:48:35;;;;;;;;;6.00;5.50;;;;;20.96;61.23;99827.75;4914111;28;46195;-77
2022/10/23 10:51:21;;;;;;;;;6.50;5.25;;;;;21.00;61.07;99818.34;4857229;29;45785;-76
2022/10/23 10:54:22;;;;;;;;;5.25;4.50;;;;;21.04;61.00;99808.13;4856187;29;45769;-79
2022/10/23 10:56:48;;;;;;;;;4.00;4.00;;;;;21.07;60.93;99810.38;4820343;29;46767;-84
2022/10/23 10:59:34;;;;;;;;;5.00;4.00;;;;;21.09;60.85;99811.03;4820417;29;45968;-79
2022/10/23 11:02:00;;;;;;;;;4.50;4.00;;;;;21.17;60.28;99810.88;4820029;29;45771;-79
2022/10/23 11:04:39;;;;;;;;;4.00;3.50;;;;;21.24;60.68;99812.56;4819979;29;45820;-82
2022/10/23 11:07:10;;;;;;;;;5.50;5.00;;;;;21.18;59.99;99789.38;4820318;29;46799;-80
2022/10/23 11:09:37;;;;;;;;;5.75;4.50;;;;;21.27;60.23;99779.38;4820309;29;45935;-79
2022/10/23 11:12:03;;;;;;;;;4.00;3.75;;;;;21.40;59.85;99792.75;4820376;29;45810;-81
2022/10/23 11:14:33;;;;;;;;;3.25;3.25;;;;;21.45;60.16;99787.66;4821465;29;45831;-80
2022/10/23 11:17:10;;;;;;;;;3.00;3.00;;;;;21.54;59.78;99798.97;4823324;29;46330;-81
2022/10/23 11:19:42;;;;;;;;;4.00;4.00;;;;;21.54;59.60;99786.44;4823359;29;47810;-81
2022/10/23 11:22:20;;;;;;;;;4.00;3.00;;;;;21.60;58.91;99779.50;4823810;29;45727;-79
2022/10/23 11:24:51;;;;;;;;;4.25;4.00;;;;;21.66;59.13;99773.38;4823339;29;45934;-80
2022/10/23 11:27:44;;;;;;;;;3.75;3.50;;;;;21.68;59.13;99769.50;4826655;29;45753;-80
2022/10/23 11:30:18;;;;;;;;;5.75;4.75;;;;;21.58;58.98;99744.22;4864403;28;45840;-80
2022/10/23 11:33:17;;;;;;;;;4.25;4.00;;;;;21.72;58.55;99762.72;4938623;28;45553;-80
2022/10/23 11:35:51;;;;;;;;;4.75;3.00;;;;;21.75;58.55;99769.50;4939061;28;45665;-80
2022/10/23 11:41:48;;;;;;;;;4.00;3.50;;;;;21.80;58.09;99772.38;4940270;28;45881;-80
2022/10/23 11:44:39;;;;;;;;;4.50;3.75;;;;;21.83;58.60;99763.97;4938006;28;45646;-80
2022/10/23 11:47:29;;;;;;;;;4.75;4.00;;;;;21.90;58.17;99756.00;4938200;28;45627;-80
2022/10/23 11:50:06;;;;;;;;;4.00;3.00;;;;;21.98;57.79;99758.47;4936529;28;48559;-80
2022/10/23 11:52:51;;;;;;;;;3.00;3.00;;;;;22.04;57.60;99750.50;4938122;28;46368;-78
2022/10/23 11:58:53;;;;;;;;;3.00;3.00;;;;;22.19;57.36;99744.94;4937579;28;45602;-82
2022/10/23 12:01:27;;;;;;;;;3.75;3.75;;;;;22.31;57.61;99739.81;4938349;28;46356;-78
2022/10/23 12:03:58;;;;;;;;;3.75;3.00;;;;;22.31;56.70;99727.28;4937585;28;45663;-85
2022/10/23 12:06:28;;;;;;;;;2.75;2.75;;;;;22.45;57.35;99734.28;4938238;28;45583;-79
2022/10/23 12:09:00;;;;;;;;;2.25;1.75;;;;;22.53;56.74;99738.56;4939522;28;45660;-80
2022/10/23 12:11:46;;;;;;;;;3.00;2.00;;;;;22.52;56.35;99708.38;4937644;28;46562;-79
2022/10/23 12:14:25;;;;;;;;;3.00;3.00;;;;;22.64;56.49;99718.41;4937660;28;45764;-78
2022/10/23 12:16:50;;;;;;;;;3.00;3.00;;;;;22.72;55.98;99719.06;4937225;28;45657;-77
2022/10/23 12:19:20;;;;;;;;;4.25;3.25;;;;;22.79;56.36;99716.34;4937907;28;45716;-77
2022/10/23 12:21:49;;;;;;;;;3.75;3.00;;;;;22.84;56.00;99706.69;4937894;28;45651;-77
2022/10/23 12:24:23;;;;;;;;;3.25;3.25;;;;;22.90;55.78;99699.69;4937120;28;46012;-80
2022/10/23 12:27:11;;;;;;;;;3.50;3.25;;;;;22.96;55.41;99693.50;4942478;28;45625;-87
2022/10/23 12:30:03;;;;;;;;;2.75;2.50;;;;;23.00;55.82;99695.53;4956944;28;45675;-87
2022/10/23 12:32:41;;;;;;;;;4.75;3.50;;;;;23.01;55.35;99694.50;4956409;28;45646;-85
2022/10/23 12:35:18;;;;;;;;;4.00;4.00;;;;;23.13;54.91;99700.00;4957918;28;45998;-84
2022/10/23 12:37:51;;;;;;;;;3.50;3.00;;;;;23.20;55.56;99705.31;4960151;28;45551;-87
2022/10/23 12:40:16;;;;;;;;;3.00;3.00;;;;;23.22;55.39;99685.34;4960512;28;45600;-85
2022/10/23 12:42:55;;;;;;;;;3.00;2.00;;;;;23.29;55.20;99683.47;4958882;28;45543;-85
2022/10/23 12:45:38;;;;;;;;;4.50;4.25;;;;;23.22;55.07;99655.13;4957127;28;45643;-84
2022/10/23 12:48:04;;;;;;;;;2.75;2.50;;;;;23.39;55.05;99666.97;4957333;28;45616;-88
2022/10/23 12:50:31;;;;;;;;;3.50;3.00;;;;;23.43;54.47;99660.97;4957682;28;45683;-86
2022/10/23 12:53:03;;;;;;;;;5.00;3.00;;;;;23.46;54.50;99664.28;4957008;28;45553;-84
2022/10/23 12:55:44;;;;;;;;;3.25;2.00;;;;;23.53;54.52;99646.34;4956831;28;45914;-87
2022/10/23 12:58:21;;;;;;;;;3.75;3.00;;;;;23.55;54.10;99633.56;4957557;28;45706;-85
2022/10/23 13:00:53;;;;;;;;;3.00;3.00;;;;;23.58;53.93;99638.50;4957089;28;45610;-86
2022/10/23 13:03:21;;;;;;;;;3.75;3.00;;;;;23.57;53.72;99618.13;4958334;28;45708;-85